createdAt,value
2023-03-17T13:40:26.342Z,9.07
2023-03-17T16:34:47.625Z,9.15
2023-03-17T16:37:16.370Z,6.65
2023-03-17T16:39:45.238Z,8.63
2023-03-17T16:42:22.764Z,14.77
2023-03-17T16:44:51.877Z,23.00
2023-03-17T16:47:20.502Z,33.13
2023-03-17T16:49:50.319Z,7.68
2023-03-17T16:52:18.729Z,8.55
2023-03-17T16:54:47.305Z,11.65
2023-03-17T16:57:15.779Z,8.23
2023-03-17T16:59:43.983Z,9.02
2023-03-17T17:02:17.235Z,15.50
2023-03-17T17:04:45.445Z,5.47
2023-03-17T17:07:15.139Z,6.32
2023-03-17T17:09:43.427Z,6.60
2023-03-17T17:12:12.154Z,5.78
2023-03-17T17:14:40.371Z,5.40
2023-03-17T17:17:09.070Z,7.68
2023-03-17T17:19:39.867Z,6.80
2023-03-17T17:22:07.964Z,6.05
2023-03-17T17:24:37.870Z,4.43
2023-03-17T17:27:06.330Z,7.30
2023-03-17T17:29:34.861Z,9.60
2023-03-17T17:32:03.541Z,9.00
2023-03-17T17:34:31.712Z,6.60
2023-03-17T17:37:02.246Z,5.78
2023-03-17T17:39:30.592Z,7.07
2023-03-17T17:42:01.193Z,5.13
2023-03-17T17:44:31.128Z,5.75
2023-03-17T17:46:59.660Z,6.07
2023-03-17T17:49:28.303Z,14.55
2023-03-17T17:51:56.614Z,6.43
2023-03-17T17:54:25.709Z,9.10
2023-03-17T17:56:54.894Z,6.03
2023-03-17T17:59:25.135Z,5.50
2023-03-17T18:01:53.352Z,9.90
2023-03-17T18:04:21.919Z,12.60
2023-03-17T18:06:50.489Z,5.68
2023-03-17T18:09:19.651Z,8.35
2023-03-17T18:11:48.315Z,5.80
2023-03-17T18:14:16.942Z,7.68
2023-03-17T18:16:47.024Z,4.13
2023-03-17T18:19:15.428Z,7.47
2023-03-17T18:21:44.359Z,8.48
2023-03-17T18:24:15.230Z,8.13
2023-03-17T18:26:43.814Z,7.30
2023-03-17T18:29:13.309Z,15.93
2023-03-17T18:31:43.763Z,18.98
2023-03-17T18:34:17.728Z,16.73
2023-03-17T18:36:47.984Z,15.65
2023-03-17T18:39:16.428Z,10.38
2023-03-17T18:41:45.694Z,4.65
2023-03-17T18:44:14.229Z,9.65
2023-03-17T18:46:42.819Z,6.80
2023-03-17T18:49:11.320Z,11.05
2023-03-17T18:51:41.174Z,7.55
2023-03-17T18:54:09.610Z,4.18
2023-03-17T18:56:38.295Z,4.85
2023-03-17T18:59:08.429Z,9.57
2023-03-17T19:01:36.759Z,9.43
2023-03-17T19:04:05.854Z,6.88
2023-03-17T19:06:35.445Z,7.88
2023-03-17T19:09:06.133Z,8.60
2023-03-17T19:11:34.733Z,12.27
2023-03-17T19:14:03.698Z,6.53
2023-03-17T19:16:32.246Z,7.38
2023-03-17T19:19:01.146Z,10.73
2023-03-17T19:21:29.832Z,8.80
2023-03-17T19:24:00.733Z,6.00
2023-03-17T19:26:34.238Z,14.27
2023-03-17T19:29:10.412Z,12.35
2023-03-17T19:31:41.732Z,6.85
2023-03-17T19:34:11.687Z,4.70
2023-03-17T19:36:42.553Z,5.25
2023-03-17T19:39:12.907Z,5.18
2023-03-17T19:41:43.086Z,9.43
2023-03-17T19:44:11.748Z,6.63
2023-03-17T19:46:41.763Z,4.95
2023-03-17T19:49:10.451Z,3.90
2023-03-17T19:51:38.806Z,7.90
2023-03-17T19:54:10.423Z,4.85
2023-03-17T19:56:39.928Z,9.77
2023-03-17T19:59:10.470Z,5.53
2023-03-17T20:01:43.680Z,9.25
2023-03-17T20:04:17.636Z,8.82
2023-03-17T20:06:46.784Z,5.53
2023-03-17T20:09:15.492Z,6.05
2023-03-17T20:11:45.089Z,4.70
2023-03-17T20:14:15.380Z,6.15
2023-03-17T20:16:43.802Z,322.75
2023-03-17T20:19:14.993Z,509.25
2023-03-17T20:21:43.662Z,404.45
2023-03-17T20:24:14.811Z,17.33
2023-03-17T20:26:44.702Z,10.00
2023-03-17T20:29:16.570Z,3.95
2023-03-17T20:31:45.357Z,5.63
2023-03-17T20:34:13.919Z,6.97
2023-03-17T20:36:45.260Z,6.20
2023-03-17T20:39:19.841Z,5.22
2023-03-17T20:41:48.928Z,9.35
2023-03-17T20:44:19.328Z,7.65
2023-03-17T20:46:48.378Z,5.88
2023-03-17T20:49:17.421Z,9.63
2023-03-17T20:51:46.661Z,3.95
2023-03-17T20:54:15.776Z,6.55
2023-03-17T20:56:46.128Z,5.10
2023-03-17T20:59:15.287Z,7.93
2023-03-17T21:01:45.307Z,8.20
2023-03-17T21:04:16.284Z,7.63
2023-03-17T21:06:44.892Z,8.02
2023-03-17T21:09:13.422Z,6.10
2023-03-17T21:11:42.536Z,5.30
2023-03-17T21:14:13.727Z,8.20
2023-03-17T21:16:45.512Z,8.63
2023-03-17T21:19:17.374Z,9.32
2023-03-17T21:21:45.829Z,4.50
2023-03-17T21:24:25.180Z,6.05
2023-03-17T21:26:53.967Z,6.90
2023-03-17T21:29:23.675Z,6.72
2023-03-17T21:31:52.542Z,6.60
2023-03-17T21:34:24.423Z,6.78
2023-03-17T21:36:56.102Z,12.07
2023-03-17T21:39:27.061Z,5.38
2023-03-17T21:41:57.775Z,9.20
2023-03-17T21:44:29.503Z,6.43
2023-03-17T21:46:57.949Z,8.85
2023-03-17T21:49:30.996Z,8.45
2023-03-17T21:54:30.849Z,4.35
2023-03-17T21:56:59.842Z,6.40
2023-03-17T21:59:35.862Z,14.68
2023-03-17T22:02:04.823Z,17.23
2023-03-17T22:04:35.698Z,9.27
2023-03-17T22:07:04.948Z,10.40
2023-03-17T22:09:33.745Z,6.70
2023-03-17T22:12:07.373Z,13.30
2023-03-17T22:14:36.590Z,16.95
2023-03-17T22:17:06.713Z,14.23
2023-03-17T22:19:37.248Z,15.10
2023-03-17T22:22:05.877Z,13.55
2023-03-17T22:24:34.675Z,10.00
2023-03-17T22:27:03.117Z,6.63
2023-03-17T22:29:32.045Z,9.07
2023-03-17T22:32:01.994Z,5.55
2023-03-17T22:34:30.399Z,5.82
2023-03-17T22:37:00.548Z,9.85
2023-03-17T22:39:29.556Z,8.57
2023-03-17T22:41:58.104Z,6.95
2023-03-17T22:44:26.302Z,17.08
2023-03-17T22:46:54.665Z,6.45
2023-03-17T22:49:23.806Z,9.70
2023-03-17T22:51:52.444Z,9.45
2023-03-17T22:54:22.167Z,11.18
2023-03-17T22:56:51.821Z,11.52
2023-03-17T22:59:20.740Z,9.52
2023-03-17T23:01:49.180Z,13.43
2023-03-17T23:04:18.906Z,11.57
2023-03-17T23:06:47.673Z,13.57
2023-03-17T23:09:16.680Z,12.63
2023-03-17T23:11:47.459Z,11.27
2023-03-17T23:14:16.479Z,10.82
2023-03-17T23:16:45.387Z,9.25
2023-03-17T23:19:13.554Z,10.93
2023-03-17T23:21:42.010Z,8.25
2023-03-17T23:24:10.748Z,13.55
2023-03-17T23:26:39.459Z,14.50
2023-03-17T23:29:10.885Z,13.60
2023-03-17T23:31:40.409Z,11.90
2023-03-17T23:34:10.150Z,10.15
2023-03-17T23:36:40.305Z,13.40
2023-03-17T23:39:09.263Z,15.45
2023-03-17T23:41:37.842Z,9.30
2023-03-17T23:44:11.558Z,10.77
2023-03-17T23:46:42.328Z,17.88
2023-03-17T23:49:10.658Z,10.63
2023-03-17T23:51:39.216Z,11.77
2023-03-17T23:54:10.642Z,10.27
2023-03-17T23:56:38.909Z,12.27
2023-03-17T23:59:10.801Z,10.95
